ESNX

Arvidsjaur Airport

Arvidsjaur, Sweden
METAR ESNX 201220Z AUTO 26006KT 220V290 9999 NCD 07/03 Q1015
Observed Flight Rules
Oct-20 @ 12:20 UTC (32 minutes ago) Visual Flight Rules
Wind Visibility Clouds
260° at 6 knots 10,000+ meters
  • Clear skies
Temperatures Readings
Current 7°C / 45°F
Dewpoint 3°C / 37°F
Humidity 76%
Altimeter 29.97" Hg
Pressure 1015 hPa
Elevation 379
METAR ESNX 201220Z AUTO 26006KT 220V290 9999 NCD 07/03 Q1015
Observed Flight Rules
Oct-20 @ 12:20 UTC
(32 minutes ago)
VFR
Wind Visibility
260° at 6 knots 10,000+ meters
Clouds
  • Clear skies
Temperature Dewpoint
7°C / 45°F 3°C / 37°F
Humidity Altimeter Pressure
76% 29.97" Hg 1015 hPa